createdAt,value
2022-10-07T00:04:32.076Z,99747.69
2022-10-07T00:09:53.936Z,99750.25
2022-10-07T00:15:15.830Z,99747.81
2022-10-07T00:20:41.257Z,99748.56
2022-10-07T00:26:06.198Z,99746.72
2022-10-07T00:31:30.795Z,99740.09
2022-10-07T00:36:52.646Z,99726.84
2022-10-07T00:42:14.433Z,99725.06
2022-10-07T00:47:37.161Z,99710.88
2022-10-07T00:53:01.906Z,99703.09
2022-10-07T00:58:24.744Z,99699.78
2022-10-07T01:03:49.469Z,99692.66
2022-10-07T01:09:12.832Z,99694.44
2022-10-07T01:15:03.550Z,99692.47
2022-10-07T01:20:34.742Z,99685.84
2022-10-07T01:26:14.835Z,99686.47
2022-10-07T01:31:44.198Z,99684.69
2022-10-07T01:37:08.402Z,99675.97
2022-10-07T01:42:30.581Z,99665.44
2022-10-07T01:47:52.394Z,99656.19
2022-10-07T01:53:52.981Z,99650.06
2022-10-07T01:59:30.079Z,99637.53
2022-10-07T02:05:00.964Z,99640.25
2022-10-07T02:10:48.087Z,99635.81
2022-10-07T02:16:33.881Z,99630.63
2022-10-07T02:21:57.567Z,99619.28
2022-10-07T02:27:28.033Z,99619.28
2022-10-07T02:32:56.742Z,99617.22
2022-10-07T02:38:19.013Z,99605.22
2022-10-07T02:43:48.680Z,99603.50
2022-10-07T02:49:13.977Z,99602.59
2022-10-07T02:54:43.160Z,99600.97
2022-10-07T03:00:10.756Z,99595.22
2022-10-07T03:05:34.721Z,99589.25
2022-10-07T03:10:56.390Z,99588.25
2022-10-07T03:16:18.218Z,99582.91
2022-10-07T03:21:40.516Z,99578.50
2022-10-07T03:27:02.196Z,99575.59
2022-10-07T03:32:27.064Z,99566.09
2022-10-07T03:37:48.804Z,99558.28
2022-10-07T03:43:10.625Z,99554.91
2022-10-07T03:48:32.497Z,99566.38
2022-10-07T03:53:57.343Z,99553.56
2022-10-07T03:59:19.049Z,99552.28
2022-10-07T04:04:40.750Z,99543.53
2022-10-07T04:10:02.538Z,99543.72
2022-10-07T04:15:24.258Z,99536.69
2022-10-07T04:20:45.954Z,99532.44
2022-10-07T04:26:09.804Z,99525.66
2022-10-07T04:31:31.539Z,99522.13
2022-10-07T04:36:54.260Z,99515.00
2022-10-07T04:42:36.242Z,99511.34
2022-10-07T04:47:58.091Z,99512.75
2022-10-07T04:53:20.829Z,99505.81
2022-10-07T04:58:42.508Z,99509.03
2022-10-07T05:04:04.406Z,99503.13
2022-10-07T05:09:26.099Z,99504.13
2022-10-07T05:14:47.915Z,99497.13
2022-10-07T05:20:12.309Z,99493.13
2022-10-07T05:25:33.994Z,99495.78
2022-10-07T05:31:10.754Z,99500.06
2022-10-07T05:36:32.578Z,99494.81
2022-10-07T05:41:54.289Z,99485.91
2022-10-07T05:47:17.901Z,99492.94
2022-10-07T05:52:39.921Z,99488.34
2022-10-07T05:58:01.658Z,99480.22
2022-10-07T06:03:25.889Z,99486.06
2022-10-07T06:08:48.140Z,99483.75
2022-10-07T06:14:09.874Z,99477.81
2022-10-07T06:19:31.578Z,99472.78
2022-10-07T06:24:57.450Z,99480.69
2022-10-07T06:30:19.236Z,99473.09
2022-10-07T06:35:41.005Z,99472.06
2022-10-07T06:41:05.187Z,99479.03
2022-10-07T06:46:27.004Z,99473.22
2022-10-07T06:51:49.772Z,99473.13
2022-10-07T06:57:40.443Z,99475.47
2022-10-07T07:02:53.107Z,99477.00
2022-10-07T07:08:16.681Z,99475.63
2022-10-07T07:13:39.498Z,99473.75
2022-10-07T07:19:07.157Z,99475.34
2022-10-07T07:24:28.864Z,99469.03
2022-10-07T07:29:50.679Z,99471.03
2022-10-07T07:35:12.436Z,99464.25
2022-10-07T07:40:37.460Z,99464.91
2022-10-07T07:45:59.323Z,99456.41
2022-10-07T07:51:22.134Z,99455.91
2022-10-07T07:56:44.665Z,99454.28
2022-10-07T08:02:07.263Z,99462.03
2022-10-07T08:07:29.079Z,99448.72
2022-10-07T08:12:50.777Z,99439.63
2022-10-07T08:18:12.440Z,99443.75
2022-10-07T08:23:35.655Z,99443.16
2022-10-07T08:28:57.904Z,99430.41
2022-10-07T08:34:19.585Z,99430.03
2022-10-07T08:39:41.330Z,99422.66
2022-10-07T08:45:03.833Z,99428.19
2022-10-07T08:50:41.196Z,99416.31
2022-10-07T08:56:16.489Z,99410.00
2022-10-07T09:02:00.174Z,99407.69
2022-10-07T09:07:36.130Z,99403.59
2022-10-07T09:13:03.543Z,99409.97
2022-10-07T09:18:41.202Z,99401.44
2022-10-07T09:24:18.807Z,99389.19
2022-10-07T09:29:40.611Z,99382.22
2022-10-07T09:35:05.950Z,99381.91
2022-10-07T09:40:27.622Z,99382.47
2022-10-07T09:45:49.269Z,99369.06
2022-10-07T09:51:13.897Z,99364.94
2022-10-07T09:56:41.772Z,99371.47
2022-10-07T10:02:15.443Z,99366.72
2022-10-07T10:07:48.376Z,99365.56
2022-10-07T10:13:33.116Z,99360.25
2022-10-07T10:19:03.394Z,99352.44
2022-10-07T10:24:47.698Z,99340.06
2022-10-07T10:30:16.179Z,99338.97
2022-10-07T10:35:45.969Z,99331.72
2022-10-07T10:41:24.586Z,99322.22
2022-10-07T10:47:12.875Z,99312.06
2022-10-07T10:52:56.190Z,99306.31
2022-10-07T10:58:42.853Z,99295.72
2022-10-07T11:04:16.608Z,99293.53
2022-10-07T11:09:51.952Z,99291.56
2022-10-07T11:15:19.444Z,99278.38
2022-10-07T11:20:47.965Z,99269.13
2022-10-07T11:26:33.796Z,99260.53
2022-10-07T11:32:04.828Z,99252.56
2022-10-07T11:37:40.014Z,99243.44
2022-10-07T11:43:12.524Z,99231.94
2022-10-07T11:48:40.805Z,99234.94
2022-10-07T11:54:06.411Z,99226.31
2022-10-07T11:59:58.543Z,99213.31
2022-10-07T12:05:35.192Z,99196.28
2022-10-07T12:11:15.532Z,99188.91
2022-10-07T12:16:37.201Z,99186.16
2022-10-07T12:21:59.383Z,99167.50
2022-10-07T12:27:28.366Z,99168.44
2022-10-07T12:32:50.402Z,99165.31
2022-10-07T12:38:13.074Z,99160.56
2022-10-07T12:43:54.590Z,99164.56
2022-10-07T12:49:41.603Z,99154.22
2022-10-07T12:55:10.971Z,99149.06
2022-10-07T13:00:33.371Z,99150.72
2022-10-07T13:06:32.625Z,99148.34
2022-10-07T13:12:03.638Z,99134.66
2022-10-07T13:17:46.182Z,99127.06
2022-10-07T13:23:15.930Z,99118.25
2022-10-07T13:28:47.121Z,99102.63
2022-10-07T13:34:17.966Z,99101.06
2022-10-07T13:39:39.720Z,99091.69
2022-10-07T13:45:02.762Z,99085.22
2022-10-07T13:50:27.645Z,99084.72
2022-10-07T13:55:49.419Z,99073.53
2022-10-07T14:01:12.482Z,99072.44
2022-10-07T14:06:43.239Z,99064.66
2022-10-07T14:12:12.127Z,99055.81
2022-10-07T14:17:47.004Z,99063.81
2022-10-07T14:23:28.214Z,99049.69
2022-10-07T14:28:50.059Z,99040.69
2022-10-07T14:34:32.719Z,99029.78
2022-10-07T14:39:54.402Z,99032.19
2022-10-07T14:45:17.955Z,99037.72
2022-10-07T14:50:40.112Z,99024.47
2022-10-07T14:56:01.854Z,99018.03
2022-10-07T15:01:25.456Z,99019.13
2022-10-07T15:06:50.751Z,99016.84
2022-10-07T15:12:15.823Z,99002.78
2022-10-07T15:17:38.408Z,98998.72
2022-10-07T15:23:02.547Z,98992.84
2022-10-07T15:28:24.301Z,98999.47
2022-10-07T15:33:46.127Z,98986.63
2022-10-07T15:39:10.014Z,98974.47
2022-10-07T15:44:31.781Z,98980.88
2022-10-07T15:49:53.581Z,98978.88
2022-10-07T15:55:16.257Z,98977.94
2022-10-07T16:00:38.005Z,98980.81
2022-10-07T16:06:02.172Z,98974.69
2022-10-07T16:11:25.676Z,98971.84
2022-10-07T16:16:47.368Z,98962.03
2022-10-07T16:22:09.502Z,98959.38
2022-10-07T16:27:51.167Z,98965.13
2022-10-07T16:33:12.875Z,98960.34
2022-10-07T16:38:34.557Z,98962.03
2022-10-07T16:43:59.599Z,98965.41
2022-10-07T16:49:21.352Z,98956.78
2022-10-07T16:54:43.167Z,98960.97
2022-10-07T17:00:05.578Z,98953.41
2022-10-07T17:05:27.347Z,98954.59
2022-10-07T17:10:49.081Z,98949.78
2022-10-07T17:16:10.958Z,98952.44
2022-10-07T17:21:34.868Z,98968.50
2022-10-07T17:26:56.771Z,98959.63
2022-10-07T17:32:18.443Z,98960.56
2022-10-07T17:37:40.150Z,98953.97
2022-10-07T17:43:06.802Z,98949.28
2022-10-07T17:48:28.966Z,98951.44
2022-10-07T17:53:51.095Z,98960.53
2022-10-07T17:59:14.228Z,98955.63
2022-10-07T18:04:36.363Z,98953.34
2022-10-07T18:09:58.173Z,98954.53
2022-10-07T18:15:19.858Z,98947.91
2022-10-07T18:20:41.536Z,98952.59
2022-10-07T18:26:11.777Z,98952.56
2022-10-07T18:31:33.600Z,98944.25
2022-10-07T18:36:56.924Z,98947.00
2022-10-07T18:42:19.184Z,98940.16
2022-10-07T18:47:40.901Z,98935.13
2022-10-07T18:53:02.653Z,98930.44
2022-10-07T18:58:24.340Z,98928.69
2022-10-07T19:03:46.342Z,98930.63
2022-10-07T19:09:11.282Z,98935.03
2022-10-07T19:14:34.565Z,98929.16
2022-10-07T19:20:00.411Z,98932.16
2022-10-07T19:25:41.023Z,98927.59
2022-10-07T19:31:17.996Z,98931.16
2022-10-07T19:36:42.225Z,98929.50
2022-10-07T19:42:04.357Z,98929.97
2022-10-07T19:47:26.084Z,98929.75
2022-10-07T19:52:47.754Z,98935.91
2022-10-07T19:58:09.459Z,98926.91
2022-10-07T20:03:31.188Z,98930.50
2022-10-07T20:08:53.946Z,98935.16
2022-10-07T20:14:16.187Z,98926.78
2022-10-07T20:19:38.184Z,98916.09
2022-10-07T20:25:01.062Z,98921.50
2022-10-07T20:30:22.878Z,98919.06
2022-10-07T20:35:44.612Z,98925.19
2022-10-07T20:41:26.635Z,98918.22
2022-10-07T20:46:51.711Z,98917.44
2022-10-07T20:52:19.797Z,98907.44
2022-10-07T20:57:41.727Z,98904.81
2022-10-07T21:03:03.466Z,98910.50
2022-10-07T21:08:26.060Z,98903.50
2022-10-07T21:13:47.734Z,98902.81
2022-10-07T21:19:09.557Z,98893.66
2022-10-07T21:24:34.379Z,98890.31
2022-10-07T21:29:56.273Z,98891.59
2022-10-07T21:35:17.922Z,98889.63
2022-10-07T21:40:39.669Z,98889.63
2022-10-07T21:46:02.408Z,98877.19
2022-10-07T21:51:29.613Z,98876.34
2022-10-07T21:56:51.418Z,98883.19
2022-10-07T22:02:13.746Z,98875.72
2022-10-07T22:07:53.786Z,98875.97
2022-10-07T22:13:15.504Z,98885.88
2022-10-07T22:18:37.226Z,98880.13
2022-10-07T22:24:01.214Z,98875.47
2022-10-07T22:29:23.104Z,98861.47
2022-10-07T22:35:03.086Z,98857.75
2022-10-07T22:40:26.138Z,98860.25
2022-10-07T22:45:58.523Z,98862.63
2022-10-07T22:51:20.821Z,98854.16
2022-10-07T22:56:42.635Z,98853.22
2022-10-07T23:02:04.317Z,98853.09
2022-10-07T23:07:25.969Z,98856.22
2022-10-07T23:12:48.117Z,98853.63
2022-10-07T23:18:10.143Z,98852.88
2022-10-07T23:23:37.151Z,98852.69
2022-10-07T23:29:00.469Z,98848.34
2022-10-07T23:34:22.424Z,98852.53
2022-10-07T23:39:44.170Z,98848.00
2022-10-07T23:45:06.343Z,98850.19
2022-10-07T23:50:28.062Z,98844.91
2022-10-07T23:55:52.036Z,98839.25
